createdAt,value
2018-02-22T00:00:09.394Z,21.30
2018-02-22T00:00:40.433Z,21.30
2018-02-22T00:01:11.667Z,21.40
2018-02-22T00:01:42.013Z,21.30
2018-02-22T00:02:12.462Z,21.30
2018-02-22T00:02:43.641Z,21.30
2018-02-22T00:03:14.039Z,21.30
2018-02-22T00:03:44.496Z,21.30
2018-02-22T00:04:14.938Z,21.30
2018-02-22T00:04:46.819Z,21.30
2018-02-22T00:05:17.187Z,21.30
2018-02-22T00:05:47.697Z,21.30
2018-02-22T00:06:18.150Z,21.30
2018-02-22T00:06:48.650Z,21.30
2018-02-22T00:07:19.053Z,21.30
2018-02-22T00:07:49.493Z,21.30
2018-02-22T00:08:20.003Z,21.30
2018-02-22T00:08:50.524Z,21.30
2018-02-22T00:09:21.562Z,21.30
2018-02-22T00:09:51.999Z,21.30
2018-02-22T00:10:23.311Z,21.30
2018-02-22T00:10:53.693Z,21.30
2018-02-22T00:11:24.038Z,21.30
2018-02-22T00:11:54.349Z,21.30
2018-02-22T00:12:24.692Z,21.30
2018-02-22T00:12:56.075Z,21.80
2018-02-22T00:13:28.133Z,21.30
2018-02-22T00:13:58.669Z,21.30
2018-02-22T00:14:30.137Z,21.30
2018-02-22T00:15:01.322Z,21.30
2018-02-22T00:15:31.902Z,21.30
2018-02-22T00:16:02.477Z,21.20
2018-02-22T00:16:33.590Z,21.30
2018-02-22T00:17:03.969Z,21.30
2018-02-22T00:17:35.245Z,21.30
2018-02-22T00:18:05.481Z,21.20
2018-02-22T00:18:36.034Z,21.30
2018-02-22T00:19:06.741Z,21.20
2018-02-22T00:19:37.218Z,21.30
2018-02-22T00:20:08.429Z,21.20
2018-02-22T00:20:38.922Z,21.20
2018-02-22T00:21:10.169Z,21.20
2018-02-22T00:21:40.772Z,21.20
2018-02-22T00:22:17.695Z,21.30
2018-02-22T00:22:48.229Z,21.20
2018-02-22T00:23:18.678Z,21.20
2018-02-22T00:23:49.920Z,21.20
2018-02-22T00:24:20.449Z,21.20
2018-02-22T00:24:50.798Z,21.20
2018-02-22T00:25:21.330Z,21.20
2018-02-22T00:25:51.666Z,21.20
2018-02-22T00:26:22.074Z,21.20
2018-02-22T00:26:52.509Z,21.20
2018-02-22T00:27:22.852Z,21.20
2018-02-22T00:27:53.294Z,21.20
2018-02-22T00:28:24.489Z,21.30
2018-02-22T00:28:55.778Z,21.20
2018-02-22T00:29:26.256Z,21.20
2018-02-22T00:29:57.320Z,21.20
2018-02-22T00:30:27.967Z,21.20
2018-02-22T00:30:58.534Z,21.20
2018-02-22T00:31:28.849Z,21.20
2018-02-22T00:31:59.322Z,21.10
2018-02-22T00:32:29.908Z,21.20
2018-02-22T00:33:00.274Z,21.20
2018-02-22T00:33:31.441Z,21.20
2018-02-22T00:34:02.786Z,21.20
2018-02-22T00:34:33.284Z,21.20
2018-02-22T00:35:04.290Z,21.20
2018-02-22T00:35:34.679Z,21.10
2018-02-22T00:36:05.219Z,21.10
2018-02-22T00:36:35.739Z,21.10
2018-02-22T00:37:06.169Z,21.10
2018-02-22T00:37:36.912Z,21.10
2018-02-22T00:38:07.491Z,21.10
2018-02-22T00:38:38.541Z,21.10
2018-02-22T00:39:08.859Z,21.10
2018-02-22T00:39:40.089Z,21.10
2018-02-22T00:40:10.527Z,21.20
2018-02-22T00:40:41.750Z,21.10
2018-02-22T00:41:12.773Z,21.60
2018-02-22T00:41:43.379Z,21.10
2018-02-22T00:42:13.809Z,21.20
2018-02-22T00:42:45.149Z,21.10
2018-02-22T00:43:15.543Z,21.10
2018-02-22T00:43:46.070Z,21.10
2018-02-22T00:44:16.706Z,21.10
2018-02-22T00:44:47.907Z,21.10
2018-02-22T00:45:19.144Z,21.10
2018-02-22T00:45:49.562Z,21.10
2018-02-22T00:46:20.678Z,21.10
2018-02-22T00:46:51.239Z,21.10
2018-02-22T00:47:21.684Z,21.10
2018-02-22T00:47:52.049Z,21.10
2018-02-22T00:48:22.614Z,21.10
2018-02-22T00:48:53.085Z,21.00
2018-02-22T00:49:23.419Z,21.00
2018-02-22T00:49:53.851Z,21.00
2018-02-22T00:50:24.401Z,21.00
2018-02-22T00:50:55.746Z,21.00
2018-02-22T00:51:26.271Z,21.00
2018-02-22T00:51:56.753Z,21.00
2018-02-22T00:52:27.248Z,21.00
2018-02-22T00:52:57.698Z,21.00
2018-02-22T00:53:28.224Z,21.00
2018-02-22T00:53:58.689Z,21.00
2018-02-22T00:54:29.144Z,21.00
2018-02-22T00:55:00.465Z,21.00
2018-02-22T00:55:30.860Z,21.00
2018-02-22T00:56:01.407Z,21.00
2018-02-22T00:56:31.913Z,21.00
2018-02-22T00:57:03.143Z,21.00
2018-02-22T00:57:33.470Z,21.00
2018-02-22T00:58:04.059Z,21.00
2018-02-22T00:58:34.499Z,21.00
2018-02-22T00:59:05.712Z,21.00
2018-02-22T00:59:36.834Z,21.20
2018-02-22T01:00:07.285Z,21.00
2018-02-22T01:00:38.387Z,21.00
2018-02-22T01:01:08.701Z,21.00
2018-02-22T01:01:39.090Z,21.00
2018-02-22T01:02:09.518Z,21.00
2018-02-22T01:02:40.744Z,21.00
2018-02-22T01:03:12.209Z,21.00
2018-02-22T01:03:42.600Z,21.00
2018-02-22T01:04:13.850Z,21.00
2018-02-22T01:04:44.069Z,21.00
2018-02-22T01:05:14.554Z,21.00
2018-02-22T01:05:45.000Z,21.00
2018-02-22T01:06:15.518Z,21.00
2018-02-22T01:06:46.612Z,21.00
2018-02-22T01:07:16.978Z,21.00
2018-02-22T01:07:47.455Z,21.10
2018-02-22T01:08:18.677Z,21.00
2018-02-22T01:08:49.109Z,20.90
2018-02-22T01:09:19.537Z,21.00
2018-02-22T01:09:50.086Z,21.00
2018-02-22T01:10:20.483Z,21.00
2018-02-22T01:10:50.805Z,21.00
2018-02-22T01:11:21.158Z,21.00
2018-02-22T01:11:51.501Z,21.00
2018-02-22T01:12:22.506Z,21.00
2018-02-22T01:12:53.818Z,21.00
2018-02-22T01:13:24.178Z,21.00
2018-02-22T01:13:54.625Z,21.00
2018-02-22T01:14:25.796Z,21.00
2018-02-22T01:14:57.109Z,21.00
2018-02-22T01:15:27.657Z,21.00
2018-02-22T01:15:57.974Z,20.90
2018-02-22T01:16:29.192Z,21.00
2018-02-22T01:17:00.512Z,21.00
2018-02-22T01:17:30.950Z,20.90
2018-02-22T01:18:01.517Z,21.00
2018-02-22T01:18:31.948Z,21.00
2018-02-22T01:19:02.433Z,21.00
2018-02-22T01:19:32.919Z,21.00
2018-02-22T01:20:03.402Z,21.00
2018-02-22T01:20:34.112Z,21.00
2018-02-22T01:21:05.971Z,21.00
2018-02-22T01:21:36.550Z,20.90
2018-02-22T01:22:06.969Z,20.90
2018-02-22T01:22:37.378Z,21.00
2018-02-22T01:23:07.817Z,20.90
2018-02-22T01:23:39.074Z,20.90
2018-02-22T01:24:09.575Z,20.90
2018-02-22T01:24:40.169Z,20.90
2018-02-22T01:25:10.598Z,20.90
2018-02-22T01:25:41.064Z,20.90
2018-02-22T01:26:11.481Z,20.90
2018-02-22T01:26:41.809Z,20.80
2018-02-22T01:27:12.433Z,20.90
2018-02-22T01:27:42.921Z,20.90
2018-02-22T01:28:14.098Z,20.90
2018-02-22T01:28:44.610Z,20.80
2018-02-22T01:29:15.846Z,20.80
2018-02-22T01:29:46.242Z,20.90
2018-02-22T01:30:16.704Z,20.80
2018-02-22T01:30:47.913Z,20.90
2018-02-22T01:31:18.507Z,20.90
2018-02-22T01:31:49.140Z,20.90
2018-02-22T01:32:19.665Z,20.80
2018-02-22T01:32:49.970Z,20.90
2018-02-22T01:33:20.470Z,20.90
2018-02-22T01:33:51.029Z,20.90
2018-02-22T01:34:21.510Z,20.90
2018-02-22T01:34:51.965Z,20.90
2018-02-22T01:35:22.446Z,20.90
2018-02-22T01:35:52.858Z,20.80
2018-02-22T01:36:24.099Z,20.90
2018-02-22T01:36:54.527Z,20.80
2018-02-22T01:37:25.770Z,20.90
2018-02-22T01:37:56.173Z,20.90
2018-02-22T01:38:26.534Z,20.90
2018-02-22T01:38:56.997Z,20.80
2018-02-22T01:39:27.503Z,20.90
2018-02-22T01:39:58.200Z,20.80
2018-02-22T01:40:28.642Z,20.90
2018-02-22T01:40:58.976Z,20.80
2018-02-22T01:41:30.174Z,20.90
2018-02-22T01:42:00.565Z,20.90
2018-02-22T01:42:31.035Z,20.90
2018-02-22T01:43:02.240Z,20.90
2018-02-22T01:43:32.814Z,20.80
2018-02-22T01:44:03.869Z,20.90
2018-02-22T01:44:34.359Z,20.80
2018-02-22T01:45:05.521Z,20.90
2018-02-22T01:45:36.062Z,20.80
2018-02-22T01:46:06.445Z,20.90
2018-02-22T01:46:37.588Z,20.90
2018-02-22T01:47:08.039Z,20.80
2018-02-22T01:47:38.461Z,21.10
2018-02-22T01:48:09.639Z,20.90
2018-02-22T01:48:39.880Z,20.80
2018-02-22T01:49:10.299Z,20.90
2018-02-22T01:49:40.738Z,20.90
2018-02-22T01:50:11.910Z,20.90
2018-02-22T01:50:42.174Z,20.80
2018-02-22T01:51:12.347Z,20.90
2018-02-22T01:51:43.550Z,20.90
2018-02-22T01:52:14.683Z,20.90
2018-02-22T01:52:45.809Z,20.90
2018-02-22T01:53:16.183Z,20.90
2018-02-22T01:53:46.649Z,20.90
2018-02-22T01:54:17.131Z,20.90
2018-02-22T01:54:47.535Z,20.90
2018-02-22T01:55:17.944Z,20.80
2018-02-22T01:55:48.479Z,20.80
2018-02-22T01:56:18.974Z,20.80
2018-02-22T01:56:49.393Z,20.90
2018-02-22T01:57:20.030Z,20.90
2018-02-22T01:57:50.514Z,20.90
2018-02-22T01:58:20.937Z,20.90
2018-02-22T01:58:51.612Z,20.80
2018-02-22T01:59:22.065Z,20.80
2018-02-22T01:59:52.527Z,20.90
2018-02-22T02:00:23.130Z,20.90
2018-02-22T02:00:53.638Z,20.90
2018-02-22T02:01:23.983Z,20.90
2018-02-22T02:01:55.312Z,20.90
2018-02-22T02:02:26.623Z,20.90
2018-02-22T02:02:57.103Z,20.80
2018-02-22T02:03:28.179Z,20.80
2018-02-22T02:03:58.647Z,20.80
2018-02-22T02:04:29.265Z,20.80
2018-02-22T02:04:59.678Z,20.80
2018-02-22T02:05:30.223Z,20.80
2018-02-22T02:06:01.352Z,20.80
2018-02-22T02:06:31.760Z,20.80
2018-02-22T02:07:03.014Z,20.80
2018-02-22T02:07:34.054Z,20.80
2018-02-22T02:08:04.461Z,20.70
2018-02-22T02:08:34.933Z,20.80
2018-02-22T02:09:05.337Z,20.80
2018-02-22T02:09:35.785Z,20.80
2018-02-22T02:10:06.276Z,20.80
2018-02-22T02:10:36.645Z,20.80
2018-02-22T02:11:07.134Z,20.80
2018-02-22T02:11:38.570Z,20.80
2018-02-22T02:12:08.973Z,20.80
2018-02-22T02:12:39.455Z,20.80
2018-02-22T02:13:09.830Z,20.80
2018-02-22T02:13:41.136Z,20.90
2018-02-22T02:14:11.513Z,20.80
2018-02-22T02:14:42.688Z,20.80
2018-02-22T02:15:14.655Z,20.80
2018-02-22T02:15:45.140Z,20.70
2018-02-22T02:16:16.380Z,20.80
2018-02-22T02:16:46.857Z,20.80
2018-02-22T02:17:18.145Z,20.80
2018-02-22T02:17:48.670Z,20.70
2018-02-22T02:18:19.173Z,20.80
2018-02-22T02:18:49.658Z,20.80
2018-02-22T02:19:21.619Z,20.80
2018-02-22T02:19:52.198Z,20.70
2018-02-22T02:20:22.478Z,20.80
2018-02-22T02:20:52.902Z,20.80
2018-02-22T02:21:23.341Z,20.70
2018-02-22T02:21:53.769Z,20.80
2018-02-22T02:22:24.121Z,20.70
2018-02-22T02:22:54.548Z,20.80
2018-02-22T02:23:24.818Z,20.70
2018-02-22T02:23:56.062Z,20.70
2018-02-22T02:24:26.485Z,20.70
2018-02-22T02:24:56.888Z,20.70
2018-02-22T02:25:28.110Z,20.80
2018-02-22T02:25:59.445Z,20.70
2018-02-22T02:26:30.485Z,20.80
2018-02-22T02:27:01.162Z,20.70
2018-02-22T02:27:31.597Z,20.70
2018-02-22T02:28:07.914Z,20.70
2018-02-22T02:28:38.449Z,20.70
2018-02-22T02:29:08.896Z,20.70
2018-02-22T02:29:39.412Z,20.70
2018-02-22T02:30:10.649Z,20.70
2018-02-22T02:30:41.163Z,20.70
2018-02-22T02:31:11.678Z,20.70
2018-02-22T02:31:42.223Z,20.70
2018-02-22T02:32:12.662Z,20.70
2018-02-22T02:32:43.831Z,20.60
2018-02-22T02:33:14.239Z,20.70
2018-02-22T02:33:44.686Z,20.60
2018-02-22T02:34:15.088Z,20.70
2018-02-22T02:34:45.429Z,20.70
2018-02-22T02:35:15.881Z,20.60
2018-02-22T02:35:47.029Z,20.60
2018-02-22T02:36:17.607Z,20.60
2018-02-22T02:36:48.134Z,20.60
2018-02-22T02:37:18.745Z,20.70
2018-02-22T02:37:49.282Z,20.60
2018-02-22T02:38:19.780Z,20.60
2018-02-22T02:38:50.366Z,20.60
2018-02-22T02:39:20.818Z,20.60
2018-02-22T02:39:52.072Z,20.60
2018-02-22T02:40:22.413Z,20.60
2018-02-22T02:40:53.705Z,20.60
2018-02-22T02:41:24.147Z,20.60
2018-02-22T02:41:55.455Z,20.60
2018-02-22T02:42:25.960Z,20.60
2018-02-22T02:42:56.462Z,20.60
2018-02-22T02:43:27.016Z,20.60
2018-02-22T02:43:57.745Z,20.60
2018-02-22T02:44:28.333Z,20.60
2018-02-22T02:44:58.635Z,20.60
2018-02-22T02:45:29.886Z,20.60
2018-02-22T02:46:00.302Z,20.60
2018-02-22T02:46:30.868Z,20.60
2018-02-22T02:47:01.302Z,20.60
2018-02-22T02:47:31.746Z,20.60
2018-02-22T02:48:02.246Z,20.60
2018-02-22T02:48:32.672Z,20.60
2018-02-22T02:49:03.099Z,20.60
2018-02-22T02:49:33.590Z,20.60
2018-02-22T02:50:04.005Z,20.60
2018-02-22T02:50:35.256Z,20.60
2018-02-22T02:51:06.278Z,21.10
2018-02-22T02:51:36.790Z,20.60
2018-02-22T02:52:08.022Z,20.60
2018-02-22T02:52:38.597Z,20.60
2018-02-22T02:53:09.058Z,20.60
2018-02-22T02:53:39.546Z,20.60
2018-02-22T02:54:09.975Z,20.60
2018-02-22T02:54:40.227Z,20.60
2018-02-22T02:55:10.489Z,20.60
2018-02-22T02:55:40.867Z,20.60
2018-02-22T02:56:11.223Z,20.60
2018-02-22T02:56:42.581Z,20.60
2018-02-22T02:57:13.089Z,20.60
2018-02-22T02:57:44.316Z,20.60
2018-02-22T02:58:15.634Z,20.60
2018-02-22T02:58:46.880Z,20.60
2018-02-22T02:59:17.998Z,20.60
2018-02-22T02:59:48.389Z,20.60
2018-02-22T03:00:19.556Z,20.60
2018-02-22T03:00:50.068Z,20.60
2018-02-22T03:01:20.590Z,20.60
2018-02-22T03:01:51.078Z,20.60
2018-02-22T03:02:22.149Z,20.60
2018-02-22T03:02:52.553Z,20.60
2018-02-22T03:03:22.948Z,20.50
2018-02-22T03:03:53.454Z,20.50
2018-02-22T03:04:23.751Z,20.60
2018-02-22T03:04:55.004Z,20.60
2018-02-22T03:05:26.226Z,20.60
2018-02-22T03:05:57.364Z,20.60
2018-02-22T03:06:28.906Z,20.60
2018-02-22T03:06:59.511Z,20.60
2018-02-22T03:07:30.053Z,20.60
2018-02-22T03:08:01.379Z,20.60
2018-02-22T03:08:31.814Z,20.60
2018-02-22T03:09:02.829Z,20.50
2018-02-22T03:09:33.301Z,20.50
2018-02-22T03:10:03.805Z,20.50
2018-02-22T03:10:34.327Z,20.50
2018-02-22T03:11:04.750Z,20.60
2018-02-22T03:11:35.244Z,20.50
2018-02-22T03:12:05.727Z,20.50
2018-02-22T03:12:37.070Z,21.00
2018-02-22T03:13:08.157Z,20.50
2018-02-22T03:13:39.290Z,20.50
2018-02-22T03:14:10.638Z,20.50
2018-02-22T03:14:41.957Z,20.50
2018-02-22T03:15:12.154Z,20.50
2018-02-22T03:15:42.553Z,20.50
2018-02-22T03:16:12.961Z,20.50
2018-02-22T03:16:44.022Z,20.50
2018-02-22T03:17:14.393Z,20.50
2018-02-22T03:17:45.597Z,20.50
2018-02-22T03:18:15.992Z,20.50
2018-02-22T03:18:47.316Z,20.60
2018-02-22T03:19:17.725Z,20.50
2018-02-22T03:19:48.974Z,20.50
2018-02-22T03:20:19.342Z,20.50
2018-02-22T03:20:50.658Z,20.50
2018-02-22T03:21:21.145Z,20.50
2018-02-22T03:21:52.465Z,20.50
2018-02-22T03:22:23.683Z,20.50
2018-02-22T03:22:54.178Z,20.50
2018-02-22T03:23:24.790Z,20.50
2018-02-22T03:23:55.157Z,20.50
2018-02-22T03:24:25.629Z,20.50
2018-02-22T03:24:56.025Z,20.50
2018-02-22T03:25:26.460Z,20.50
2018-02-22T03:25:57.620Z,20.50
2018-02-22T03:26:27.964Z,20.50
2018-02-22T03:26:58.453Z,20.50
2018-02-22T03:27:29.666Z,20.50
2018-02-22T03:28:00.055Z,20.50
2018-02-22T03:28:31.318Z,20.50
2018-02-22T03:29:01.707Z,20.50
2018-02-22T03:29:32.282Z,20.50
2018-02-22T03:30:02.818Z,20.50
2018-02-22T03:30:33.988Z,20.50
2018-02-22T03:31:05.231Z,20.50
2018-02-22T03:31:35.588Z,20.50
2018-02-22T03:32:06.217Z,20.50
2018-02-22T03:32:37.479Z,20.50
2018-02-22T03:33:07.815Z,20.50
2018-02-22T03:33:38.174Z,20.50
2018-02-22T03:34:08.529Z,20.50
2018-02-22T03:34:39.010Z,20.50
2018-02-22T03:35:09.506Z,20.50
2018-02-22T03:35:39.965Z,20.50
2018-02-22T03:36:10.559Z,20.50
2018-02-22T03:36:41.006Z,20.50
2018-02-22T03:37:12.213Z,20.50
2018-02-22T03:37:43.333Z,20.90
2018-02-22T03:38:13.878Z,20.50
2018-02-22T03:38:44.438Z,20.50
2018-02-22T03:39:14.764Z,20.50
2018-02-22T03:39:45.185Z,20.50
2018-02-22T03:40:15.690Z,20.50
2018-02-22T03:40:46.129Z,20.50
2018-02-22T03:41:16.565Z,20.50
2018-02-22T03:41:46.807Z,20.50
2018-02-22T03:42:17.098Z,20.50
2018-02-22T03:42:48.301Z,20.50
2018-02-22T03:43:18.786Z,20.50
2018-02-22T03:43:49.126Z,20.50
2018-02-22T03:44:19.498Z,20.50
2018-02-22T03:44:49.925Z,20.50
2018-02-22T03:45:20.217Z,20.50
2018-02-22T03:45:50.689Z,20.50
2018-02-22T03:46:21.150Z,20.50
2018-02-22T03:46:52.215Z,20.50
2018-02-22T03:47:22.718Z,20.50
2018-02-22T03:47:53.052Z,20.50
2018-02-22T03:48:23.332Z,20.50
2018-02-22T03:48:53.944Z,20.50
2018-02-22T03:49:25.214Z,20.50
2018-02-22T03:49:55.781Z,20.50
2018-02-22T03:50:26.947Z,20.50
2018-02-22T03:50:57.525Z,20.50
2018-02-22T03:51:28.619Z,20.50
2018-02-22T03:51:59.754Z,20.50
2018-02-22T03:52:30.223Z,20.50
2018-02-22T03:53:00.574Z,20.40
2018-02-22T03:53:31.791Z,20.40
2018-02-22T03:54:02.384Z,20.40
2018-02-22T03:54:32.635Z,20.50
2018-02-22T03:55:03.632Z,20.50
2018-02-22T03:55:34.849Z,20.70
2018-02-22T03:56:05.180Z,20.40
2018-02-22T03:56:35.588Z,20.40
2018-02-22T03:57:05.981Z,20.40
2018-02-22T03:57:36.487Z,20.40
2018-02-22T03:58:06.914Z,20.40
2018-02-22T03:58:37.386Z,20.40
2018-02-22T03:59:08.582Z,20.50
2018-02-22T03:59:38.957Z,20.40
2018-02-22T04:00:09.402Z,20.40
2018-02-22T04:00:39.833Z,20.40
2018-02-22T04:01:10.297Z,20.40
2018-02-22T04:01:41.511Z,20.40
2018-02-22T04:02:12.181Z,20.40
2018-02-22T04:02:43.205Z,20.40
2018-02-22T04:03:13.649Z,20.40
2018-02-22T04:03:44.313Z,20.40
2018-02-22T04:04:14.722Z,20.50
2018-02-22T04:04:45.256Z,20.40
2018-02-22T04:05:16.416Z,20.40
2018-02-22T04:05:46.881Z,20.40
2018-02-22T04:06:17.353Z,20.40
2018-02-22T04:06:47.813Z,20.40
2018-02-22T04:07:18.290Z,20.40
2018-02-22T04:07:49.597Z,20.50
2018-02-22T04:08:20.110Z,20.40
2018-02-22T04:08:51.354Z,20.40
2018-02-22T04:09:21.858Z,20.40
2018-02-22T04:09:52.344Z,20.40
2018-02-22T04:10:22.994Z,20.40
2018-02-22T04:10:53.379Z,20.40
2018-02-22T04:11:23.803Z,20.40
2018-02-22T04:11:54.390Z,20.40
2018-02-22T04:12:25.558Z,20.40
2018-02-22T04:12:56.681Z,20.90
2018-02-22T04:13:27.936Z,20.40
2018-02-22T04:13:58.965Z,20.50
2018-02-22T04:14:30.209Z,20.40
2018-02-22T04:15:00.556Z,20.40
2018-02-22T04:15:30.910Z,20.40
2018-02-22T04:16:02.152Z,20.40
2018-02-22T04:16:32.530Z,20.40
2018-02-22T04:17:03.035Z,20.40
2018-02-22T04:17:33.495Z,20.40
2018-02-22T04:18:03.970Z,20.40
2018-02-22T04:18:34.477Z,20.40
2018-02-22T04:19:04.993Z,20.40
2018-02-22T04:19:35.398Z,20.40
2018-02-22T04:20:05.581Z,20.40
2018-02-22T04:20:36.597Z,20.40
2018-02-22T04:21:07.834Z,20.40
2018-02-22T04:21:39.055Z,20.40
2018-02-22T04:22:09.244Z,20.30
2018-02-22T04:22:39.566Z,20.30
2018-02-22T04:23:10.043Z,20.30
2018-02-22T04:23:40.552Z,20.30
2018-02-22T04:24:11.722Z,20.40
2018-02-22T04:24:42.234Z,20.40
2018-02-22T04:25:13.475Z,20.40
2018-02-22T04:25:44.898Z,20.80
2018-02-22T04:26:15.345Z,20.30
2018-02-22T04:26:45.914Z,20.30
2018-02-22T04:27:17.061Z,20.30
2018-02-22T04:27:48.191Z,20.30
2018-02-22T04:28:18.687Z,20.30
2018-02-22T04:28:49.051Z,20.30
2018-02-22T04:29:20.355Z,20.40
2018-02-22T04:29:50.833Z,20.30
2018-02-22T04:30:21.114Z,20.30
2018-02-22T04:30:52.397Z,20.40
2018-02-22T04:31:22.853Z,20.40
2018-02-22T04:31:53.429Z,20.30
2018-02-22T04:32:23.777Z,20.30
2018-02-22T04:32:54.304Z,20.30
2018-02-22T04:33:24.853Z,20.30
2018-02-22T04:33:55.296Z,20.30
2018-02-22T04:34:25.797Z,20.30
2018-02-22T04:34:56.406Z,20.30
2018-02-22T04:35:26.782Z,20.30
2018-02-22T04:35:57.120Z,20.30
2018-02-22T04:36:28.283Z,20.40
2018-02-22T04:36:58.560Z,20.30
2018-02-22T04:37:29.733Z,20.30
2018-02-22T04:38:00.238Z,20.30
2018-02-22T04:38:31.482Z,20.40
2018-02-22T04:39:01.719Z,20.30
2018-02-22T04:39:32.162Z,20.30
2018-02-22T04:40:02.611Z,20.30
2018-02-22T04:40:33.774Z,20.30
2018-02-22T04:41:04.875Z,20.30
2018-02-22T04:41:35.372Z,20.30
2018-02-22T04:42:05.735Z,20.30
2018-02-22T04:42:36.199Z,20.20
2018-02-22T04:43:07.245Z,20.30
2018-02-22T04:43:39.193Z,20.30
2018-02-22T04:44:10.515Z,20.60
2018-02-22T04:44:41.764Z,20.30
2018-02-22T04:45:12.911Z,20.30
2018-02-22T04:45:43.465Z,20.20
2018-02-22T04:46:14.532Z,20.30
2018-02-22T04:46:44.870Z,20.20
2018-02-22T04:47:16.182Z,20.30
2018-02-22T04:47:46.761Z,20.30
2018-02-22T04:48:17.930Z,20.30
2018-02-22T04:48:48.499Z,20.20
2018-02-22T04:49:18.749Z,20.20
2018-02-22T04:49:49.235Z,20.30
2018-02-22T04:50:20.310Z,20.30
2018-02-22T04:50:51.509Z,20.20
2018-02-22T04:51:21.823Z,20.20
2018-02-22T04:51:52.230Z,20.20
2018-02-22T04:52:23.519Z,20.20
2018-02-22T04:52:54.045Z,20.20
2018-02-22T04:53:24.693Z,20.20
2018-02-22T04:53:55.066Z,20.20
2018-02-22T04:54:25.448Z,20.20
2018-02-22T04:54:57.600Z,20.20
2018-02-22T04:55:27.950Z,20.30
2018-02-22T04:55:58.394Z,20.20
2018-02-22T04:56:28.832Z,20.20
2018-02-22T04:56:59.326Z,20.30
2018-02-22T04:57:29.689Z,20.20
2018-02-22T04:58:00.217Z,20.20
2018-02-22T04:58:30.561Z,20.20
2018-02-22T04:59:00.878Z,20.20
2018-02-22T04:59:31.369Z,20.20
2018-02-22T05:00:01.825Z,20.20
2018-02-22T05:00:32.368Z,20.20
2018-02-22T05:01:02.857Z,20.20
2018-02-22T05:01:33.198Z,20.20
2018-02-22T05:02:03.661Z,20.20
2018-02-22T05:02:34.935Z,20.20
2018-02-22T05:03:05.299Z,20.20
2018-02-22T05:03:35.769Z,20.20
2018-02-22T05:04:06.995Z,20.20
2018-02-22T05:04:37.766Z,20.20
2018-02-22T05:05:08.039Z,20.20
2018-02-22T05:05:38.502Z,20.20
2018-02-22T05:06:08.965Z,20.20
2018-02-22T05:06:39.301Z,20.20
2018-02-22T05:07:11.191Z,20.20
2018-02-22T05:07:41.479Z,20.20
2018-02-22T05:08:11.935Z,20.10
2018-02-22T05:08:42.407Z,20.10
2018-02-22T05:09:12.848Z,20.10
2018-02-22T05:09:44.185Z,20.20
2018-02-22T05:10:16.230Z,20.20
2018-02-22T05:10:46.815Z,20.10
2018-02-22T05:11:18.181Z,20.20
2018-02-22T05:11:49.396Z,20.20
2018-02-22T05:12:19.767Z,20.20
2018-02-22T05:12:50.128Z,19.70
2018-02-22T05:13:21.373Z,20.20
2018-02-22T05:13:51.839Z,20.20
2018-02-22T05:14:23.020Z,20.20
2018-02-22T05:14:53.559Z,20.20
2018-02-22T05:15:24.767Z,20.20
2018-02-22T05:15:55.904Z,20.20
2018-02-22T05:16:26.238Z,20.10
2018-02-22T05:16:56.800Z,20.10
2018-02-22T05:17:27.197Z,20.10
2018-02-22T05:17:57.547Z,20.10
2018-02-22T05:18:28.019Z,20.20
2018-02-22T05:18:58.661Z,20.10
2018-02-22T05:19:29.144Z,20.10
2018-02-22T05:20:00.368Z,20.20
2018-02-22T05:20:31.754Z,20.20
2018-02-22T05:21:02.145Z,20.10
2018-02-22T05:21:32.622Z,20.10
2018-02-22T05:22:03.604Z,20.10
2018-02-22T05:22:33.937Z,20.10
2018-02-22T05:23:04.505Z,20.10
2018-02-22T05:23:34.969Z,20.10
2018-02-22T05:24:06.092Z,20.10
2018-02-22T05:24:36.599Z,20.10
2018-02-22T05:25:07.839Z,20.20
2018-02-22T05:25:38.962Z,20.20
2018-02-22T05:26:09.988Z,20.10
2018-02-22T05:26:41.209Z,20.50
2018-02-22T05:27:11.573Z,20.10
2018-02-22T05:27:42.778Z,20.20
2018-02-22T05:28:13.051Z,20.10
2018-02-22T05:28:43.586Z,20.10
2018-02-22T05:29:14.042Z,20.10
2018-02-22T05:29:44.448Z,20.10
2018-02-22T05:30:14.941Z,20.10
2018-02-22T05:30:46.280Z,20.10
2018-02-22T05:31:17.013Z,20.10
2018-02-22T05:31:47.509Z,20.10
2018-02-22T05:32:17.997Z,20.10
2018-02-22T05:32:49.241Z,20.20
2018-02-22T05:33:19.823Z,20.10
2018-02-22T05:33:50.250Z,20.10
2018-02-22T05:34:20.691Z,20.10
2018-02-22T05:34:51.322Z,20.10
2018-02-22T05:35:21.794Z,20.10
2018-02-22T05:35:52.217Z,20.10
2018-02-22T05:36:22.670Z,20.10
2018-02-22T05:36:53.220Z,20.10
2018-02-22T05:37:23.919Z,20.10
2018-02-22T05:37:55.220Z,20.20
2018-02-22T05:38:25.754Z,20.10
2018-02-22T05:38:56.033Z,20.10
2018-02-22T05:39:26.529Z,20.10
2018-02-22T05:39:56.991Z,20.10
2018-02-22T05:40:28.325Z,20.10
2018-02-22T05:40:59.365Z,20.10
2018-02-22T05:41:29.829Z,20.10
2018-02-22T05:42:00.254Z,20.10
2018-02-22T05:42:30.748Z,20.10
2018-02-22T05:43:01.101Z,20.10
2018-02-22T05:43:31.634Z,20.10
2018-02-22T05:44:02.934Z,20.70
2018-02-22T05:44:34.184Z,20.10
2018-02-22T05:45:05.300Z,20.10
2018-02-22T05:45:35.861Z,20.10
2018-02-22T05:46:06.357Z,20.10
2018-02-22T05:46:36.919Z,20.10
2018-02-22T05:47:08.092Z,20.60
2018-02-22T05:47:39.326Z,20.10
2018-02-22T05:48:09.858Z,20.10
2018-02-22T05:48:40.408Z,20.10
2018-02-22T05:49:11.465Z,20.10
2018-02-22T05:49:42.712Z,20.10
2018-02-22T05:50:13.879Z,20.10
2018-02-22T05:50:45.162Z,20.40
2018-02-22T05:51:16.408Z,20.10
2018-02-22T05:51:46.799Z,20.10
2018-02-22T05:52:18.062Z,20.10
2018-02-22T05:52:48.667Z,20.10
2018-02-22T05:53:19.909Z,20.10
2018-02-22T05:53:50.346Z,20.10
2018-02-22T05:54:20.667Z,20.10
2018-02-22T05:54:51.749Z,20.10
2018-02-22T05:55:22.092Z,20.10
2018-02-22T05:55:52.381Z,20.10
2018-02-22T05:56:22.812Z,20.10
2018-02-22T05:56:54.028Z,20.10
2018-02-22T05:57:24.578Z,20.10
2018-02-22T05:57:54.754Z,20.10
2018-02-22T05:58:24.948Z,20.10
2018-02-22T05:58:55.328Z,20.10
2018-02-22T05:59:25.959Z,20.10
2018-02-22T05:59:56.424Z,20.10
2018-02-22T06:00:27.636Z,20.10
2018-02-22T06:00:58.062Z,20.10
2018-02-22T06:01:29.285Z,20.10
2018-02-22T06:01:59.513Z,20.10
2018-02-22T06:02:30.016Z,20.10
2018-02-22T06:03:00.630Z,20.10
2018-02-22T06:03:31.115Z,20.10
2018-02-22T06:04:01.568Z,20.10
2018-02-22T06:04:32.583Z,20.10
2018-02-22T06:05:03.153Z,20.10
2018-02-22T06:05:33.581Z,20.10
2018-02-22T06:06:03.838Z,20.10
2018-02-22T06:06:34.939Z,20.10
2018-02-22T06:07:05.426Z,20.10
2018-02-22T06:07:35.849Z,20.10
2018-02-22T06:08:06.984Z,19.60
2018-02-22T06:08:37.289Z,20.10
2018-02-22T06:09:07.826Z,20.00
2018-02-22T06:09:38.070Z,20.10
2018-02-22T06:10:08.561Z,20.10
2018-02-22T06:10:38.861Z,20.00
2018-02-22T06:11:09.970Z,20.10
2018-02-22T06:11:41.331Z,20.10
2018-02-22T06:12:11.745Z,20.00
2018-02-22T06:12:42.344Z,20.10
2018-02-22T06:13:12.870Z,20.10
2018-02-22T06:13:43.350Z,20.00
2018-02-22T06:14:13.942Z,20.00
2018-02-22T06:14:44.397Z,20.00
2018-02-22T06:15:14.845Z,20.00
2018-02-22T06:15:45.465Z,20.00
2018-02-22T06:16:16.789Z,20.10
2018-02-22T06:16:47.271Z,20.00
2018-02-22T06:17:17.722Z,20.00
2018-02-22T06:17:48.276Z,20.00
2018-02-22T06:18:18.937Z,20.00
2018-02-22T06:18:49.521Z,20.00
2018-02-22T06:19:19.872Z,20.00
2018-02-22T06:19:50.422Z,20.10
2018-02-22T06:20:21.626Z,20.00
2018-02-22T06:20:52.741Z,20.10
2018-02-22T06:21:23.890Z,20.10
2018-02-22T06:21:54.401Z,20.10
2018-02-22T06:22:24.795Z,20.10
2018-02-22T06:22:55.941Z,20.00
2018-02-22T06:23:26.227Z,20.00
2018-02-22T06:23:57.602Z,20.10
2018-02-22T06:24:28.101Z,20.00
2018-02-22T06:24:59.238Z,20.10
2018-02-22T06:25:29.627Z,20.00
2018-02-22T06:26:00.148Z,20.10
2018-02-22T06:26:30.681Z,20.00
2018-02-22T06:27:01.669Z,20.10
2018-02-22T06:27:32.836Z,20.10
2018-02-22T06:28:03.322Z,20.00
2018-02-22T06:28:33.760Z,20.00
2018-02-22T06:29:04.286Z,20.00
2018-02-22T06:29:34.767Z,20.00
2018-02-22T06:30:05.231Z,20.10
2018-02-22T06:30:35.735Z,20.10
2018-02-22T06:31:06.245Z,20.10
2018-02-22T06:31:38.287Z,20.10
2018-02-22T06:32:08.622Z,20.10
2018-02-22T06:32:38.968Z,20.00
2018-02-22T06:33:09.850Z,20.10
2018-02-22T06:33:41.052Z,20.10
2018-02-22T06:34:11.444Z,20.10
2018-02-22T06:34:42.009Z,20.10
2018-02-22T06:35:12.364Z,20.10